Aversi

DK-0015 · 西兰大区, 丹麦

罗盘
风向 的 风向 200° Aversi 9/27
风: 15 kt, 4 beaufort

7 kt

13 kt
改变
0 ft 1.000 2.000 3.000 4.000 5.000
未检测到零云
METAR EKRS 231620Z AUTO 20015KT 9999 NCD 07/03 Q0993

METAR Aversi - DK-0015

Aversi是,丹麦中的小机场。 该机场位于纬度55,34232和经度11,83271。 该机场有一条跑道: 9/27. 这个机场没有ICAO代码,我们使用DK-0015作为参考。 机场在Kobenhavn FIR中。

该航空气象观测是针对Ringsted Airfield在2024年2月23日 17:20, 当地时间进行的。

机场观察

风向为200°,速度为15 kt。

可见度为10 km 或者更多。

有未检测到零云。 没有观察到天花板。

温度为7 °C,阵风为2 °C。 露点为3 °C,相对湿度为76%。 海平面上的气压为993 hPa (QNH)。

白天

今天,太阳从07:18升起,在17:33降落。 这适用于Aversi,世界夏令时可能有所不同。 当地时间与世界标准时间之间的时差为+1 小时。 当前,没有夏令时有效。

公司介绍

在这个机场,你可以找到跳伞中心。 本场上唯一已知的公司是Aversi Faldskærm Club。

体会

到Vliegles.nl去找飞行课程,跳伞和其他飞行体验。 浏览页面,了解Aversi附近所有可用的活动。 你也可以使用搜索功能来寻找你所在地附近的特定飞行课程、跳伞或其他飞行体验。

跑道

Id 标题 侧风 逆风 侧风 %
9/27 084°-264° 13 kt 7 kt 90 %

逆风成分最大的方向会被突出显示,并用于横风计算。 这并不一定意味着这个方向在使用。

乌云

- NCD 未检测到零云

温度 & 天气

温度 7 °C
露点 3 °C
相对湿度 76%
风寒 2 °C
Kp-index 0 (0-9)

白天

日出
07:18 (13:29)
中午
12:26
日落
17:33

小工具

你想在你的网站上有一个关于Aversi的当前航空天气(METAR)的小部件吗?

显示HTML代码
?>